createdAt,value
2022-12-15T00:02:21.711Z,99854.91
2022-12-15T00:05:08.552Z,99849.44
2022-12-15T00:07:53.888Z,99850.09
2022-12-15T00:10:39.191Z,99856.31
2022-12-15T00:13:29.314Z,99855.13
2022-12-15T00:16:14.938Z,99862.94
2022-12-15T00:18:59.827Z,99862.31
2022-12-15T00:21:46.885Z,99868.63
2022-12-15T00:24:32.313Z,99858.69
2022-12-15T00:27:17.492Z,99867.47
2022-12-15T00:30:02.675Z,99870.59
2022-12-15T00:32:47.920Z,99871.44
2022-12-15T00:35:33.209Z,99875.44
2022-12-15T00:38:25.489Z,99872.13
2022-12-15T00:40:58.838Z,99870.28
2022-12-15T00:43:26.811Z,99871.13
2022-12-15T00:46:11.919Z,99878.78
2022-12-15T00:48:39.733Z,99877.94
2022-12-15T00:51:06.836Z,99885.75
2022-12-15T00:53:53.187Z,99873.53
2022-12-15T00:56:38.465Z,99882.16
2022-12-15T00:59:23.843Z,99877.50
2022-12-15T01:02:09.070Z,99878.84
2022-12-15T01:04:54.220Z,99886.81
2022-12-15T01:07:39.368Z,99891.81
2022-12-15T01:10:26.814Z,99896.41
2022-12-15T01:13:12.180Z,99903.72
2022-12-15T01:15:57.920Z,99894.59
2022-12-15T01:18:43.725Z,99898.97
2022-12-15T01:21:17.413Z,99902.28
2022-12-15T01:23:45.078Z,99905.63
2022-12-15T01:26:14.134Z,99891.66
2022-12-15T01:28:41.797Z,99900.94
2022-12-15T01:31:12.994Z,99904.28
2022-12-15T01:33:42.551Z,99901.81
2022-12-15T01:36:11.216Z,99899.16
2022-12-15T01:38:38.948Z,99894.19
2022-12-15T01:41:08.208Z,99893.66
2022-12-15T01:43:38.939Z,99898.13
2022-12-15T01:46:07.830Z,99890.34
2022-12-15T01:48:40.765Z,99897.81
2022-12-15T01:51:24.903Z,99887.50
2022-12-15T01:53:58.844Z,99893.66
2022-12-15T01:56:32.428Z,99890.00
2022-12-15T01:59:05.858Z,99890.50
2022-12-15T02:01:33.615Z,99896.66
2022-12-15T02:04:01.838Z,99899.31
2022-12-15T02:06:30.797Z,99900.97
2022-12-15T02:09:01.482Z,99902.97
2022-12-15T02:11:43.885Z,99902.31
2022-12-15T02:14:20.724Z,99900.50
2022-12-15T02:16:58.744Z,99910.78
2022-12-15T02:19:54.574Z,99905.50
2022-12-15T02:22:33.068Z,99902.00
2022-12-15T02:25:21.938Z,99902.50
2022-12-15T02:27:57.781Z,99910.66
2022-12-15T02:30:36.439Z,99910.97
2022-12-15T02:33:28.653Z,99915.94
2022-12-15T02:36:01.091Z,99922.44
2022-12-15T02:38:33.768Z,99919.44
2022-12-15T02:41:03.212Z,99924.44
2022-12-15T02:43:34.355Z,99927.88
2022-12-15T02:46:15.712Z,99937.22
2022-12-15T02:48:54.379Z,99935.88
2022-12-15T02:51:35.011Z,99950.16
2022-12-15T02:54:23.077Z,99953.81
2022-12-15T02:57:03.905Z,99965.09
2022-12-15T02:59:39.570Z,99972.72
2022-12-15T03:02:10.791Z,99969.22
2022-12-15T03:04:38.556Z,99971.38
2022-12-15T03:07:10.155Z,99978.88
2022-12-15T03:09:37.880Z,99978.19
2022-12-15T03:12:05.986Z,99974.53
2022-12-15T03:14:33.615Z,99980.03
2022-12-15T03:17:01.352Z,99979.84
2022-12-15T03:19:30.485Z,99976.84
2022-12-15T03:21:58.166Z,99979.00
2022-12-15T03:24:25.783Z,99975.03
2022-12-15T03:26:53.410Z,99973.88
2022-12-15T03:29:21.047Z,99975.88
2022-12-15T03:31:50.050Z,99977.50
2022-12-15T03:34:18.426Z,99979.44
2022-12-15T03:36:47.783Z,99986.44
2022-12-15T03:39:15.473Z,99986.59
2022-12-15T03:41:43.093Z,99974.41
2022-12-15T03:44:10.867Z,99970.09
2022-12-15T03:46:38.486Z,99980.38
2022-12-15T03:49:06.275Z,99970.63
2022-12-15T03:51:33.952Z,99967.97
2022-12-15T03:54:02.976Z,99973.66
2022-12-15T03:56:30.651Z,99977.66
2022-12-15T03:58:58.368Z,99974.31
2022-12-15T04:01:29.720Z,99987.25
2022-12-15T04:04:00.944Z,99999.69
2022-12-15T04:06:29.691Z,99999.38
2022-12-15T04:08:57.485Z,99997.25
2022-12-15T04:11:26.467Z,100001.06
2022-12-15T04:13:54.125Z,100002.88
2022-12-15T04:16:21.830Z,100005.66
2022-12-15T04:19:10.901Z,99998.41
2022-12-15T04:21:37.565Z,99988.44
2022-12-15T04:24:23.823Z,99994.41
2022-12-15T04:27:10.258Z,100011.84
2022-12-15T04:29:55.719Z,100019.97
2022-12-15T04:32:41.455Z,100028.94
2022-12-15T04:35:27.704Z,100034.94
2022-12-15T04:38:12.887Z,100032.28
2022-12-15T04:40:58.160Z,100038.44
2022-12-15T04:43:44.729Z,100032.28
2022-12-15T04:46:30.152Z,100029.63
2022-12-15T04:49:15.181Z,100029.47
2022-12-15T04:52:00.470Z,100032.28
2022-12-15T04:54:45.636Z,100037.25
2022-12-15T04:57:30.987Z,100031.28
2022-12-15T05:00:17.589Z,100033.97
2022-12-15T05:03:02.792Z,100034.28
2022-12-15T05:05:48.117Z,100037.78
2022-12-15T05:08:33.318Z,100042.41
2022-12-15T05:11:18.553Z,100050.88
2022-12-15T05:14:03.910Z,100054.03
2022-12-15T05:16:50.517Z,100061.19
2022-12-15T05:19:35.861Z,100068.97
2022-12-15T05:22:21.242Z,100065.16
2022-12-15T05:25:06.551Z,100077.47
2022-12-15T05:27:51.872Z,100077.78
2022-12-15T05:30:37.223Z,100075.63
2022-12-15T05:33:07.044Z,100080.13
2022-12-15T05:35:34.784Z,100069.16
2022-12-15T05:38:02.421Z,100068.16
2022-12-15T05:40:30.215Z,100074.13
2022-12-15T05:42:59.059Z,100081.47
2022-12-15T05:45:26.925Z,100090.09
2022-12-15T05:47:55.741Z,100087.59
2022-12-15T05:50:25.024Z,100089.91
2022-12-15T05:52:52.841Z,100087.44
2022-12-15T05:55:20.788Z,100092.09
2022-12-15T05:57:52.366Z,100091.59
2022-12-15T06:00:20.820Z,100102.56
2022-12-15T06:02:49.765Z,100106.22
2022-12-15T06:05:17.768Z,100111.03
2022-12-15T06:07:46.904Z,100101.06
2022-12-15T06:10:14.871Z,100103.03
2022-12-15T06:12:42.516Z,100098.25
2022-12-15T06:15:11.033Z,100127.13
2022-12-15T06:17:38.643Z,100131.47
2022-12-15T06:20:07.238Z,100139.44
2022-12-15T06:22:34.933Z,100132.28
2022-12-15T06:25:04.150Z,100135.59
2022-12-15T06:27:31.800Z,100127.13
2022-12-15T06:29:59.493Z,100125.66
2022-12-15T06:32:27.182Z,100122.31
2022-12-15T06:34:54.913Z,100136.78
2022-12-15T06:37:22.578Z,100135.94
2022-12-15T06:39:50.218Z,100128.97
2022-12-15T06:42:19.167Z,100126.66
2022-12-15T06:44:46.769Z,100130.63
2022-12-15T06:47:18.250Z,100140.28
2022-12-15T06:49:45.860Z,100143.75
2022-12-15T06:52:13.555Z,100139.78
2022-12-15T06:54:41.356Z,100146.06
2022-12-15T06:57:08.947Z,100147.09
2022-12-15T06:59:37.991Z,100147.75
2022-12-15T07:02:05.996Z,100154.72
2022-12-15T07:04:33.866Z,100167.53
2022-12-15T07:07:01.515Z,100161.84
2022-12-15T07:09:29.135Z,100164.50
2022-12-15T07:11:56.803Z,100184.66
2022-12-15T07:14:25.751Z,100187.63
2022-12-15T07:16:55.009Z,100200.78
2022-12-15T07:19:22.643Z,100211.38
2022-12-15T07:21:50.428Z,100207.41
2022-12-15T07:24:18.032Z,100211.06
2022-12-15T07:26:46.082Z,100211.03
2022-12-15T07:29:23.024Z,100211.03
2022-12-15T07:31:51.278Z,100216.34
2022-12-15T07:34:20.378Z,100224.34
2022-12-15T07:36:52.134Z,100220.31
2022-12-15T07:39:20.498Z,100231.28
2022-12-15T07:41:48.351Z,100243.25
2022-12-15T07:44:16.135Z,100247.09
2022-12-15T07:46:46.763Z,100244.09
2022-12-15T07:49:14.802Z,100246.88
2022-12-15T07:51:44.005Z,100259.00
2022-12-15T07:54:12.579Z,100254.00
2022-12-15T07:56:40.413Z,100256.34
2022-12-15T07:59:08.785Z,100250.34
2022-12-15T08:01:36.741Z,100271.22
2022-12-15T08:04:06.064Z,100267.88
2022-12-15T08:06:33.746Z,100269.34
2022-12-15T08:09:03.087Z,100257.00
2022-12-15T08:11:34.420Z,100265.03
2022-12-15T08:14:04.005Z,100280.59
2022-12-15T08:16:34.538Z,100271.94
2022-12-15T08:19:02.465Z,100290.09
2022-12-15T08:21:31.149Z,100291.47
2022-12-15T08:24:00.698Z,100300.13
2022-12-15T08:26:31.312Z,100294.28
2022-12-15T08:29:31.803Z,100299.72
2022-12-15T08:31:51.568Z,100295.13
2022-12-15T08:34:19.326Z,100297.13
2022-12-15T08:36:47.039Z,100303.16
2022-12-15T08:39:14.781Z,100304.97
2022-12-15T08:41:43.823Z,100316.94
2022-12-15T08:44:11.475Z,100323.16
2022-12-15T08:46:39.846Z,100323.44
2022-12-15T08:49:08.636Z,100321.28
2022-12-15T08:51:36.303Z,100327.28
2022-12-15T08:54:04.012Z,100317.78
2022-12-15T08:56:31.728Z,100320.09
2022-12-15T08:59:02.271Z,100325.28
2022-12-15T09:01:31.871Z,100322.09
2022-12-15T09:04:01.289Z,100329.75
2022-12-15T09:06:30.847Z,100320.63
2022-12-15T09:09:00.023Z,100320.50
2022-12-15T09:11:29.103Z,100320.50
2022-12-15T09:13:57.564Z,100325.63
2022-12-15T09:16:30.847Z,100332.44
2022-12-15T09:19:00.499Z,100331.97
2022-12-15T09:21:30.574Z,100332.78
2022-12-15T09:24:00.599Z,100336.13
2022-12-15T09:26:30.257Z,100330.13
2022-12-15T09:28:58.175Z,100336.28
2022-12-15T09:31:29.296Z,100336.28
2022-12-15T09:33:58.752Z,100343.59
2022-12-15T09:36:27.734Z,100330.97
2022-12-15T09:38:55.702Z,100330.28
2022-12-15T09:41:27.104Z,100331.94
2022-12-15T09:43:59.216Z,100316.59
2022-12-15T09:46:43.162Z,100326.72
2022-12-15T09:49:19.550Z,100321.91
2022-12-15T09:51:51.748Z,100329.53
2022-12-15T09:54:20.684Z,100336.50
2022-12-15T09:56:54.132Z,100335.16
2022-12-15T09:59:31.047Z,100343.81
2022-12-15T10:02:19.451Z,100348.28
2022-12-15T10:04:55.709Z,100348.38
2022-12-15T10:07:31.014Z,100348.84
2022-12-15T10:09:58.962Z,100344.59
2022-12-15T10:12:31.443Z,100346.81
2022-12-15T10:15:13.711Z,100345.03
2022-12-15T10:17:50.195Z,100345.72
2022-12-15T10:20:21.170Z,100356.56
2022-12-15T10:25:37.018Z,100353.38
2022-12-15T10:28:28.686Z,100355.13
2022-12-15T10:31:00.084Z,100348.41
2022-12-15T10:33:36.060Z,100356.63
2022-12-15T10:36:10.023Z,100350.69
2022-12-15T10:38:40.383Z,100347.75
2022-12-15T10:41:10.432Z,100345.84
2022-12-15T10:43:40.446Z,100350.91
2022-12-15T10:46:14.823Z,100338.50
2022-12-15T10:48:48.571Z,100346.63
2022-12-15T10:51:22.743Z,100347.25
2022-12-15T10:53:54.072Z,100356.97
2022-12-15T10:56:32.337Z,100358.81
2022-12-15T10:59:02.775Z,100359.75
2022-12-15T11:01:31.500Z,100353.47
2022-12-15T11:04:01.385Z,100356.59
2022-12-15T11:06:32.183Z,100360.69
2022-12-15T11:09:10.052Z,100365.75
2022-12-15T11:12:11.895Z,100377.63
2022-12-15T11:14:46.030Z,100383.34
2022-12-15T11:17:18.196Z,100386.09
2022-12-15T11:19:59.824Z,100393.31
2022-12-15T11:22:36.541Z,100380.09
2022-12-15T11:25:11.895Z,100385.50
2022-12-15T11:27:44.233Z,100391.00
2022-12-15T11:30:15.279Z,100395.16
2022-12-15T11:32:45.653Z,100390.94
2022-12-15T11:35:23.184Z,100388.09
2022-12-15T11:37:57.289Z,100396.63
2022-12-15T11:40:36.249Z,100399.41
2022-12-15T11:43:28.257Z,100401.16
2022-12-15T11:46:08.929Z,100393.06
2022-12-15T11:48:50.824Z,100389.28
2022-12-15T11:51:26.217Z,100394.00
2022-12-15T11:54:06.578Z,100395.34
2022-12-15T11:56:35.302Z,100393.66
2022-12-15T11:59:24.953Z,100393.66
2022-12-15T12:02:05.120Z,100386.28
2022-12-15T12:04:44.071Z,100391.28
2022-12-15T12:07:25.351Z,100384.75
2022-12-15T12:10:04.760Z,100384.41
2022-12-15T12:12:39.929Z,100378.06
2022-12-15T12:15:24.042Z,100375.25
2022-12-15T12:17:56.513Z,100370.78
2022-12-15T12:20:29.222Z,100361.66
2022-12-15T12:23:03.385Z,100357.31
2022-12-15T12:25:35.552Z,100355.84
2022-12-15T12:28:07.888Z,100348.88
2022-12-15T12:30:42.335Z,100344.72
2022-12-15T12:33:17.953Z,100353.72
2022-12-15T12:35:51.231Z,100354.50
2022-12-15T12:38:26.010Z,100356.78
2022-12-15T12:41:03.820Z,100359.91
2022-12-15T12:46:26.420Z,100366.66
2022-12-15T12:48:59.906Z,100370.13
2022-12-15T12:51:30.719Z,100378.63
2022-12-15T12:54:00.918Z,100380.38
2022-12-15T12:56:36.727Z,100391.81
2022-12-15T12:59:08.648Z,100389.44
2022-12-15T13:01:38.366Z,100386.00
2022-12-15T13:04:09.605Z,100386.66
2022-12-15T13:07:01.421Z,100388.91
2022-12-15T13:10:01.883Z,100387.38
2022-12-15T13:12:53.480Z,100389.66
2022-12-15T13:15:36.182Z,100385.31
2022-12-15T13:18:12.170Z,100382.13
2022-12-15T13:20:41.553Z,100377.41
2022-12-15T13:23:36.709Z,100370.66
2022-12-15T13:26:19.149Z,100368.59
2022-12-15T13:28:51.596Z,100369.91
2022-12-15T13:31:42.906Z,100373.63
2022-12-15T13:34:25.846Z,100367.88
2022-12-15T13:37:01.703Z,100371.50
2022-12-15T13:39:56.395Z,100362.19
2022-12-15T13:42:48.306Z,100369.06
2022-12-15T13:45:50.584Z,100371.44
2022-12-15T13:48:30.859Z,100372.94
2022-12-15T13:51:04.726Z,100376.78
2022-12-15T13:53:39.971Z,100374.53
2022-12-15T13:56:22.276Z,100373.31
2022-12-15T13:58:58.537Z,100366.66
2022-12-15T14:01:32.242Z,100369.97
2022-12-15T14:04:08.231Z,100369.00
2022-12-15T14:06:39.595Z,100369.81
2022-12-15T14:09:13.526Z,100367.56
2022-12-15T14:11:53.273Z,100365.66
2022-12-15T14:14:26.664Z,100368.31
2022-12-15T14:16:58.671Z,100379.66
2022-12-15T14:19:26.935Z,100377.78
2022-12-15T14:21:56.299Z,100371.16
2022-12-15T14:27:24.798Z,100373.94
2022-12-15T14:30:13.652Z,100370.63
2022-12-15T14:32:42.622Z,100372.47
2022-12-15T14:35:15.609Z,100373.47
2022-12-15T14:37:43.679Z,100377.28
2022-12-15T14:40:16.222Z,100379.34
2022-12-15T14:42:44.496Z,100381.53
2022-12-15T14:45:20.849Z,100379.88
2022-12-15T14:48:13.399Z,100383.13
2022-12-15T14:50:46.939Z,100375.47
2022-12-15T14:53:16.848Z,100383.69
2022-12-15T14:55:44.683Z,100390.63
2022-12-15T14:58:30.501Z,100378.84
2022-12-15T15:01:00.343Z,100381.06
2022-12-15T15:03:05.025Z,100364.78
2022-12-15T15:03:10.262Z,100350.38
2022-12-15T15:03:14.310Z,100378.13
2022-12-15T15:03:37.176Z,100380.44
2022-12-15T15:06:16.582Z,100386.56
2022-12-15T15:08:47.893Z,100388.13
2022-12-15T15:11:25.019Z,100386.09
2022-12-15T15:13:56.513Z,100378.25
2022-12-15T15:16:25.750Z,100376.41
2022-12-15T15:18:56.079Z,100373.97
2022-12-15T15:21:24.998Z,100373.81
2022-12-15T15:24:00.370Z,100382.47
2022-12-15T15:26:28.656Z,100380.19
2022-12-15T15:28:56.791Z,100380.34
2022-12-15T15:31:38.543Z,100375.94
2022-12-15T15:34:08.790Z,100374.94
2022-12-15T15:36:38.398Z,100373.28
2022-12-15T15:39:13.073Z,100378.84
2022-12-15T15:41:40.784Z,100375.69
2022-12-15T15:44:14.385Z,100376.63
2022-12-15T15:46:47.610Z,100372.41
2022-12-15T15:49:19.070Z,100360.13
2022-12-15T15:51:46.968Z,100367.25
2022-12-15T15:54:17.402Z,100357.13
2022-12-15T15:56:45.111Z,100365.25
2022-12-15T15:59:14.311Z,100363.31
2022-12-15T16:01:42.216Z,100366.91
2022-12-15T16:04:11.492Z,100362.69
2022-12-15T16:06:43.633Z,100364.34
2022-12-15T16:09:16.680Z,100370.09
2022-12-15T16:11:45.634Z,100380.13
2022-12-15T16:14:14.195Z,100380.88
2022-12-15T16:16:42.689Z,100389.47
2022-12-15T16:19:12.000Z,100389.75
2022-12-15T16:21:40.862Z,100384.28
2022-12-15T16:24:12.220Z,100383.72
2022-12-15T16:26:47.146Z,100396.09
2022-12-15T16:29:17.467Z,100398.78
2022-12-15T16:31:45.982Z,100403.38
2022-12-15T16:34:16.482Z,100398.03
2022-12-15T16:36:45.194Z,100401.09
2022-12-15T16:39:27.786Z,100397.75
2022-12-15T16:41:57.029Z,100401.16
2022-12-15T16:44:25.642Z,100402.63
2022-12-15T16:46:53.569Z,100399.75
2022-12-15T16:49:22.701Z,100402.63
2022-12-15T16:51:53.377Z,100405.03
2022-12-15T16:54:23.413Z,100414.34
2022-12-15T16:56:52.877Z,100407.88
2022-12-15T16:59:32.988Z,100408.03
2022-12-15T17:02:02.165Z,100417.91
2022-12-15T17:04:31.330Z,100426.94
2022-12-15T17:06:59.000Z,100426.31
2022-12-15T17:09:26.901Z,100429.97
2022-12-15T17:11:54.658Z,100432.53
2022-12-15T17:14:22.377Z,100429.75
2022-12-15T17:16:50.251Z,100435.03
2022-12-15T17:19:21.362Z,100442.13
2022-12-15T17:21:53.950Z,100435.69
2022-12-15T17:24:22.809Z,100434.38
2022-12-15T17:26:50.974Z,100435.56
2022-12-15T17:29:22.696Z,100435.38
2022-12-15T17:31:50.403Z,100448.59
2022-12-15T17:34:30.069Z,100457.13
2022-12-15T17:37:00.597Z,100455.34
2022-12-15T17:39:29.019Z,100464.38
2022-12-15T17:42:01.359Z,100474.78
2022-12-15T17:44:34.303Z,100473.25
2022-12-15T17:47:04.306Z,100473.25
2022-12-15T17:49:36.164Z,100472.22
2022-12-15T17:52:09.087Z,100478.59
2022-12-15T17:54:36.790Z,100478.94
2022-12-15T17:57:04.588Z,100478.84
2022-12-15T17:59:32.570Z,100476.69
2022-12-15T18:02:00.272Z,100472.38
2022-12-15T18:04:28.077Z,100470.41
2022-12-15T18:07:01.630Z,100470.78
2022-12-15T18:09:31.420Z,100475.09
2022-12-15T18:11:59.384Z,100467.59
2022-12-15T18:14:28.673Z,100474.69
2022-12-15T18:16:56.306Z,100471.94
2022-12-15T18:19:24.209Z,100467.09
2022-12-15T18:21:51.867Z,100467.09
2022-12-15T18:24:21.509Z,100478.78
2022-12-15T18:26:50.495Z,100478.84
2022-12-15T18:29:18.944Z,100475.97
2022-12-15T18:31:49.404Z,100478.66
2022-12-15T18:34:21.015Z,100470.16
2022-12-15T18:36:48.748Z,100480.16
2022-12-15T18:39:23.128Z,100482.81
2022-12-15T18:41:54.623Z,100477.00
2022-12-15T18:44:24.768Z,100489.69
2022-12-15T18:46:52.691Z,100492.22
2022-12-15T18:49:23.043Z,100496.72
2022-12-15T18:51:50.920Z,100496.31
2022-12-15T18:54:20.970Z,100496.81
2022-12-15T18:56:49.062Z,100486.84
2022-12-15T18:59:19.676Z,100482.50
2022-12-15T19:01:49.596Z,100481.81
2022-12-15T19:04:17.324Z,100483.03
2022-12-15T19:06:45.746Z,100476.84
2022-12-15T19:09:16.584Z,100487.16
2022-12-15T19:12:16.893Z,100489.53
2022-12-15T19:14:46.995Z,100494.72
2022-12-15T19:17:33.988Z,100502.41
2022-12-15T19:20:19.756Z,100509.22
2022-12-15T19:22:48.586Z,100498.25
2022-12-15T19:25:25.538Z,100494.56
2022-12-15T19:27:58.689Z,100497.94
2022-12-15T19:30:29.901Z,100496.28
2022-12-15T19:32:57.771Z,100498.94
2022-12-15T19:35:27.203Z,100500.16
2022-12-15T19:37:57.879Z,100499.09
2022-12-15T19:40:29.321Z,100505.44
2022-12-15T19:42:58.208Z,100505.59
2022-12-15T19:45:29.501Z,100502.81
2022-12-15T19:47:57.402Z,100502.81
2022-12-15T19:50:27.348Z,100503.31
2022-12-15T19:52:57.679Z,100506.81
2022-12-15T19:55:28.046Z,100514.50
2022-12-15T19:57:55.684Z,100512.97
2022-12-15T20:00:24.688Z,100513.63
2022-12-15T20:02:55.745Z,100513.28
2022-12-15T20:05:24.115Z,100507.31
2022-12-15T20:07:53.356Z,100503.16
2022-12-15T20:10:29.344Z,100506.81
2022-12-15T20:12:57.704Z,100506.69
2022-12-15T20:15:26.565Z,100507.03
2022-12-15T20:17:56.565Z,100504.00
2022-12-15T20:20:25.510Z,100504.03
2022-12-15T20:22:57.155Z,100503.03
2022-12-15T20:25:27.234Z,100517.88
2022-12-15T20:27:54.958Z,100509.06
2022-12-15T20:30:25.024Z,100504.66
2022-12-15T20:32:52.912Z,100501.34
2022-12-15T20:35:23.366Z,100499.34
2022-12-15T20:37:52.473Z,100512.81
2022-12-15T20:40:23.799Z,100507.19
2022-12-15T20:42:52.577Z,100507.22
2022-12-15T20:45:23.229Z,100515.56
2022-12-15T20:47:53.435Z,100508.38
2022-12-15T20:50:26.914Z,100503.19
2022-12-15T20:52:55.466Z,100507.53
2022-12-15T20:55:23.294Z,100511.91
2022-12-15T20:57:51.025Z,100520.25
2022-12-15T21:00:19.394Z,100517.38
2022-12-15T21:02:47.808Z,100514.56
2022-12-15T21:05:19.806Z,100525.22
2022-12-15T21:07:50.536Z,100529.41
2022-12-15T21:10:20.052Z,100521.72
2022-12-15T21:12:49.595Z,100521.88
2022-12-15T21:15:19.487Z,100527.72
2022-12-15T21:17:57.328Z,100528.38
2022-12-15T21:20:35.752Z,100533.22
2022-12-15T21:23:04.726Z,100533.72
2022-12-15T21:25:32.544Z,100528.91
2022-12-15T21:28:00.201Z,100528.72
2022-12-15T21:30:27.966Z,100527.38
2022-12-15T21:32:55.694Z,100521.06
2022-12-15T21:35:26.153Z,100521.72
2022-12-15T21:37:56.392Z,100526.75
2022-12-15T21:40:29.398Z,100536.22
2022-12-15T21:42:57.998Z,100527.09
2022-12-15T21:45:27.086Z,100523.72
2022-12-15T21:48:12.203Z,100519.72
2022-12-15T21:50:40.926Z,100510.41
2022-12-15T21:53:15.779Z,100513.25
2022-12-15T21:55:46.415Z,100515.41
2022-12-15T21:58:20.342Z,100504.59
2022-12-15T22:00:48.251Z,100523.41
2022-12-15T22:03:16.017Z,100518.25
2022-12-15T22:05:43.694Z,100520.25
2022-12-15T22:08:17.148Z,100512.75
2022-12-15T22:10:47.692Z,100517.41
2022-12-15T22:13:20.470Z,100525.41
2022-12-15T22:15:50.634Z,100532.72
2022-12-15T22:18:22.899Z,100527.06
2022-12-15T22:20:52.386Z,100520.56
2022-12-15T22:23:21.299Z,100530.03
2022-12-15T22:25:54.125Z,100527.91
2022-12-15T22:28:25.005Z,100531.91
2022-12-15T22:30:54.002Z,100524.06
2022-12-15T22:33:24.573Z,100523.75
2022-12-15T22:35:53.227Z,100518.56
2022-12-15T22:38:24.024Z,100521.91
2022-12-15T22:40:55.664Z,100521.56
2022-12-15T22:43:27.263Z,100511.06
2022-12-15T22:45:56.449Z,100512.56
2022-12-15T22:48:32.995Z,100515.56
2022-12-15T22:51:01.042Z,100510.22
2022-12-15T22:53:31.789Z,100511.38
2022-12-15T22:56:02.351Z,100508.03
2022-12-15T22:58:36.126Z,100513.06
2022-12-15T23:01:06.862Z,100515.69
2022-12-15T23:03:35.598Z,100515.03
2022-12-15T23:06:04.672Z,100515.69
2022-12-15T23:08:32.931Z,100507.56
2022-12-15T23:11:19.479Z,100508.22
2022-12-15T23:13:47.117Z,100525.03
2022-12-15T23:16:21.219Z,100520.34
2022-12-15T23:18:50.297Z,100517.06
2022-12-15T23:21:20.989Z,100513.22
2022-12-15T23:23:48.932Z,100512.88
2022-12-15T23:26:19.640Z,100513.34
2022-12-15T23:28:47.322Z,100526.50
2022-12-15T23:31:14.976Z,100525.63
2022-12-15T23:33:42.895Z,100528.97
2022-12-15T23:36:11.023Z,100533.66
2022-12-15T23:38:39.191Z,100534.16
2022-12-15T23:41:07.031Z,100542.00
2022-12-15T23:43:37.673Z,100536.66
2022-12-15T23:46:07.624Z,100535.66
2022-12-15T23:48:38.066Z,100545.47
2022-12-15T23:51:08.068Z,100539.66
2022-12-15T23:53:37.105Z,100547.28
2022-12-15T23:56:07.296Z,100540.13
2022-12-15T23:58:37.667Z,100536.47
